Time;durP1;ratioP1;P1;durP2;ratioP2;P2;SDS_P1;SDS_P2;PMS_P1;PMS_P2;Temp;Humidity;BMP_temperature;BMP_pressure;BME280_temperature;BME280_humidity;BME280_pressure;Samples;Min_cycle;Max_cycle;Signal;HPM_P1;HPM_P2
2023/09/20 00:02:18;;;;;;;17.15;5.13;;;;;;;15.54;100.00;92690.53;5059135;28;20028;-78
2023/09/20 00:04:43;;;;;;;13.38;5.28;;;;;;;15.54;100.00;92695.81;5058476;28;20529;-80
2023/09/20 00:07:09;;;;;;;14.70;4.78;;;;;;;15.56;100.00;92692.88;5058559;28;20132;-79
2023/09/20 00:09:34;;;;;;;11.48;4.43;;;;;;;15.56;100.00;92698.91;5041132;28;20487;-79
2023/09/20 00:12:00;;;;;;;9.63;5.00;;;;;;;15.56;100.00;92693.63;5058686;28;20045;-79
2023/09/20 00:14:26;;;;;;;15.40;5.25;;;;;;;15.58;100.00;92694.09;5058930;28;20028;-80
2023/09/20 00:16:52;;;;;;;16.60;5.68;;;;;;;15.59;100.00;92697.50;5040447;28;20045;-79
2023/09/20 00:19:18;;;;;;;17.23;5.30;;;;;;;15.64;100.00;92702.63;5058863;28;20049;-79
2023/09/20 00:21:46;;;;;;;12.63;5.10;;;;;;;15.67;100.00;92701.22;5058604;28;20041;-80
2023/09/20 00:24:12;;;;;;;20.88;5.78;;;;;;;15.70;100.00;92697.97;5057894;28;20033;-79
2023/09/20 00:26:37;;;;;;;11.77;5.82;;;;;;;15.74;100.00;92704.22;5058345;28;20186;-80
2023/09/20 00:29:06;;;;;;;14.80;5.90;;;;;;;15.74;100.00;92710.25;5057931;28;20048;-80
2023/09/20 00:31:32;;;;;;;18.33;5.80;;;;;;;15.80;100.00;92702.94;5040281;28;20033;-79
2023/09/20 00:34:00;;;;;;;17.70;6.07;;;;;;;15.83;100.00;92704.97;5056437;28;20422;-80
2023/09/20 00:36:27;;;;;;;14.88;5.53;;;;;;;15.86;100.00;92712.25;5056001;28;20041;-80
2023/09/20 00:38:53;;;;;;;13.63;5.15;;;;;;;15.89;100.00;92706.34;5056315;28;20040;-80
2023/09/20 00:41:18;;;;;;;16.67;5.20;;;;;;;15.90;100.00;92707.91;5057096;28;20033;-80
2023/09/20 00:43:44;;;;;;;12.00;4.93;;;;;;;15.94;100.00;92702.75;5022918;28;20032;-80
2023/09/20 00:46:11;;;;;;;13.13;5.40;;;;;;;15.95;100.00;92696.41;5056365;28;20040;-80
2023/09/20 00:48:38;;;;;;;12.25;5.28;;;;;;;15.98;100.00;92696.53;5056737;28;20033;-79
2023/09/20 00:51:06;;;;;;;15.57;5.15;;;;;;;15.97;100.00;92695.00;5056612;28;20029;-80
2023/09/20 00:53:32;;;;;;;10.48;5.32;;;;;;;15.97;100.00;92692.38;5055823;28;20036;-80
2023/09/20 00:55:58;;;;;;;12.80;4.68;;;;;;;15.96;100.00;92696.09;5056329;28;20060;-80
2023/09/20 00:58:25;;;;;;;13.75;5.25;;;;;;;15.96;100.00;92697.94;5057108;28;20083;-79
2023/09/20 01:00:54;;;;;;;21.35;5.38;;;;;;;15.93;100.00;92688.78;5057286;28;20106;-80
2023/09/20 01:03:19;;;;;;;14.52;4.53;;;;;;;15.91;100.00;92690.97;5057911;28;20029;-80
2023/09/20 01:05:47;;;;;;;20.67;4.63;;;;;;;15.90;100.00;92692.06;5055919;28;20094;-80
2023/09/20 01:08:12;;;;;;;12.07;4.57;;;;;;;15.87;100.00;92697.97;5057450;28;20075;-80
2023/09/20 01:10:38;;;;;;;13.73;4.57;;;;;;;15.85;100.00;92699.38;5057173;28;20029;-80
2023/09/20 01:13:09;;;;;;;12.25;4.35;;;;;;;15.81;100.00;92704.50;5057032;28;20091;-80
2023/09/20 01:15:36;;;;;;;13.88;4.30;;;;;;;15.81;100.00;92705.28;5055312;28;20056;-80
2023/09/20 01:18:04;;;;;;;15.48;4.82;;;;;;;15.82;100.00;92698.91;5056893;28;20033;-79
2023/09/20 01:20:31;;;;;;;14.15;5.13;;;;;;;15.84;100.00;92697.81;5056595;28;20034;-80
2023/09/20 01:22:58;;;;;;;10.80;4.40;;;;;;;15.84;100.00;92698.59;5055664;28;20029;-80
2023/09/20 01:25:25;;;;;;;13.32;4.40;;;;;;;15.86;100.00;92701.69;5055680;28;20043;-80
2023/09/20 01:27:55;;;;;;;12.55;5.32;;;;;;;15.87;100.00;92707.75;5055161;28;20033;-80
2023/09/20 01:30:31;;;;;;;16.23;5.10;;;;;;;15.88;100.00;92704.81;5056685;28;20108;-80
2023/09/20 01:33:08;;;;;;;14.25;4.95;;;;;;;15.88;100.00;92696.88;5054849;28;20036;-79
2023/09/20 01:35:36;;;;;;;13.90;5.53;;;;;;;15.90;100.00;92705.28;5056167;28;20044;-80
2023/09/20 01:38:06;;;;;;;11.23;4.85;;;;;;;15.90;100.00;92707.91;5055676;28;20032;-79
2023/09/20 01:40:33;;;;;;;12.23;4.85;;;;;;;15.88;100.00;92710.09;5056625;28;20467;-79
2023/09/20 01:43:08;;;;;;;16.90;5.18;;;;;;;15.83;100.00;92704.97;5056286;28;20037;-80
2023/09/20 01:45:35;;;;;;;14.63;4.70;;;;;;;15.82;100.00;92700.78;5055047;28;20036;-80
2023/09/20 01:48:06;;;;;;;9.82;4.53;;;;;;;15.79;100.00;92707.44;5056924;28;20055;-80
2023/09/20 01:50:33;;;;;;;12.32;4.50;;;;;;;15.80;100.00;92710.84;5055249;28;20025;-80
2023/09/20 01:53:00;;;;;;;12.70;4.75;;;;;;;15.81;100.00;92709.78;5055322;28;20040;-80
2023/09/20 01:55:27;;;;;;;14.35;5.40;;;;;;;15.79;100.00;92710.09;5038418;28;20094;-80
2023/09/20 01:57:55;;;;;;;14.63;5.50;;;;;;;15.80;100.00;92705.59;5055181;28;20130;-80
2023/09/20 02:00:29;;;;;;;17.10;6.90;;;;;;;15.82;100.00;92706.81;5055473;28;20033;-80
2023/09/20 02:03:00;;;;;;;22.10;7.78;;;;;;;15.84;100.00;92705.75;5056462;28;20051;-80
2023/09/20 02:05:27;;;;;;;24.25;9.52;;;;;;;15.86;100.00;92708.84;5056376;28;20056;-79
2023/09/20 02:07:55;;;;;;;25.98;10.75;;;;;;;15.86;100.00;92706.22;5056686;28;20056;-80
2023/09/20 02:10:21;;;;;;;39.70;13.18;;;;;;;15.90;100.00;92704.50;5055227;28;20060;-80
2023/09/20 02:12:49;;;;;;;31.70;12.60;;;;;;;15.90;100.00;92686.78;5056349;28;20021;-79
2023/09/20 02:15:15;;;;;;;28.23;10.68;;;;;;;15.90;100.00;92686.03;5054242;28;20079;-80
2023/09/20 02:17:41;;;;;;;27.90;11.88;;;;;;;15.91;100.00;92690.19;5055986;28;20021;-80
2023/09/20 02:20:09;;;;;;;27.83;10.73;;;;;;;15.90;100.00;92691.31;5055758;28;20048;-80
2023/09/20 02:22:36;;;;;;;37.20;12.95;;;;;;;15.90;100.00;92683.38;5055541;28;20033;-80
2023/09/20 02:25:10;;;;;;;45.40;15.60;;;;;;;15.92;100.00;92679.34;5054367;28;20086;-80
2023/09/20 02:27:36;;;;;;;30.70;13.27;;;;;;;15.95;100.00;92686.63;5054005;28;20044;-79
2023/09/20 02:30:03;;;;;;;41.10;15.88;;;;;;;15.95;100.00;92681.34;5037514;28;20029;-80
2023/09/20 02:32:31;;;;;;;53.60;16.20;;;;;;;15.96;100.00;92688.19;5055434;28;20041;-80
2023/09/20 02:34:57;;;;;;;39.95;15.80;;;;;;;15.98;100.00;92691.25;5055860;28;20033;-80
2023/09/20 02:37:23;;;;;;;52.00;17.92;;;;;;;15.96;100.00;92685.53;5055975;28;20481;-80
2023/09/20 02:39:48;;;;;;;40.97;14.05;;;;;;;15.93;100.00;92683.50;5055604;28;20033;-79
2023/09/20 02:42:14;;;;;;;33.53;13.52;;;;;;;15.91;100.00;92682.28;5036712;28;20037;-79
2023/09/20 02:44:40;;;;;;;39.60;14.60;;;;;;;15.86;100.00;92670.03;5054458;28;20424;-80
2023/09/20 02:47:06;;;;;;;43.50;16.35;;;;;;;15.87;100.00;92676.84;5054478;28;20045;-79
2023/09/20 02:49:34;;;;;;;40.47;16.90;;;;;;;15.87;100.00;92671.56;5054902;28;20078;-80
2023/09/20 02:52:00;;;;;;;46.47;19.13;;;;;;;15.87;100.00;92676.84;5054895;28;20041;-79
2023/09/20 02:54:25;;;;;;;36.65;14.57;;;;;;;15.86;100.00;92671.91;5055145;28;20483;-80
2023/09/20 02:56:52;;;;;;;43.42;13.43;;;;;;;15.82;100.00;92674.38;5053784;28;20394;-80
2023/09/20 02:59:19;;;;;;;42.83;14.80;;;;;;;15.79;100.00;92675.00;5055183;28;20041;-80
2023/09/20 03:01:49;;;;;;;50.75;17.40;;;;;;;15.76;100.00;92675.63;5054385;28;20512;-80
2023/09/20 03:04:15;;;;;;;45.60;18.55;;;;;;;15.74;100.00;92675.19;5054790;28;20185;-80
2023/09/20 03:06:44;;;;;;;38.33;15.32;;;;;;;15.72;100.00;92685.28;5057372;28;20033;-80
2023/09/20 03:09:10;;;;;;;42.22;16.67;;;;;;;15.66;100.00;92673.28;5057500;28;20037;-80
2023/09/20 03:11:37;;;;;;;41.42;17.17;;;;;;;15.62;100.00;92678.41;5060118;28;20041;-80
2023/09/20 03:14:08;;;;;;;53.85;19.40;;;;;;;15.64;100.00;92678.09;5058753;28;20036;-80
2023/09/20 03:16:34;;;;;;;43.33;18.65;;;;;;;15.64;100.00;92678.88;5058563;28;20037;-80
2023/09/20 03:19:01;;;;;;;47.88;19.98;;;;;;;15.63;100.00;92677.34;5057798;28;20033;-80
2023/09/20 03:21:28;;;;;;;53.17;20.08;;;;;;;15.64;100.00;92683.38;5057490;28;20082;-80
2023/09/20 03:23:55;;;;;;;53.33;19.60;;;;;;;15.63;100.00;92682.59;5057376;28;20051;-80
2023/09/20 03:26:21;;;;;;;59.13;20.70;;;;;;;15.61;100.00;92682.16;5057977;28;20041;-80
2023/09/20 03:28:48;;;;;;;47.80;19.30;;;;;;;15.61;100.00;92687.41;5057746;28;20029;-80
2023/09/20 03:31:15;;;;;;;56.97;20.88;;;;;;;15.60;100.00;92684.00;5058787;28;20101;-80
2023/09/20 03:33:42;;;;;;;56.13;21.40;;;;;;;15.58;100.00;92683.53;5058230;28;20033;-79
2023/09/20 03:36:15;;;;;;;59.63;22.00;;;;;;;15.56;100.00;92688.34;5057583;28;20029;-80
2023/09/20 03:38:44;;;;;;;58.38;25.48;;;;;;;15.55;100.00;92697.34;5057723;28;20037;-80
2023/09/20 03:41:12;;;;;;;67.45;26.10;;;;;;;15.50;100.00;92691.47;5057146;28;20399;-80
2023/09/20 03:43:40;;;;;;;60.70;25.10;;;;;;;15.49;100.00;92682.78;5056338;28;20040;-79
2023/09/20 03:46:07;;;;;;;64.82;27.58;;;;;;;15.49;100.00;92695.97;5041677;28;20041;-80
2023/09/20 03:48:33;;;;;;;68.32;26.70;;;;;;;15.50;100.00;92692.22;5057701;28;20171;-80
2023/09/20 03:50:58;;;;;;;60.45;26.30;;;;;;;15.50;100.00;92689.59;5057434;28;20040;-80
2023/09/20 03:53:25;;;;;;;61.75;26.38;;;;;;;15.52;100.00;92694.56;5056937;28;20139;-79
2023/09/20 03:55:51;;;;;;;72.18;26.17;;;;;;;15.53;100.00;92690.81;5056574;28;20079;-79
2023/09/20 03:58:20;;;;;;;70.15;27.08;;;;;;;15.53;100.00;92688.97;5057450;28;20045;-80
2023/09/20 04:00:47;;;;;;;65.38;27.60;;;;;;;15.54;100.00;92690.53;5056836;28;20037;-80
2023/09/20 04:03:13;;;;;;;76.50;25.73;;;;;;;15.57;100.00;92686.50;5056948;28;20028;-79
2023/09/20 04:05:39;;;;;;;73.00;26.05;;;;;;;15.57;100.00;92676.69;5057495;28;20070;-80
2023/09/20 04:08:08;;;;;;;63.03;25.48;;;;;;;15.58;100.00;92673.00;5057277;28;20048;-80
2023/09/20 04:10:35;;;;;;;59.38;24.73;;;;;;;15.59;100.00;92666.63;5057049;28;20048;-80
2023/09/20 04:13:02;;;;;;;64.53;24.58;;;;;;;15.61;100.00;92669.72;5040188;28;20041;-80
2023/09/20 04:15:29;;;;;;;72.97;24.83;;;;;;;15.62;100.00;92663.34;5056429;28;20128;-79
2023/09/20 04:17:55;;;;;;;60.35;22.60;;;;;;;15.58;100.00;92659.81;5056223;28;20145;-79
2023/09/20 04:20:20;;;;;;;66.68;23.00;;;;;;;15.55;100.00;92663.03;5056887;28;20178;-80
2023/09/20 04:22:49;;;;;;;60.40;21.98;;;;;;;15.52;100.00;92658.41;5056482;28;20048;-79
2023/09/20 04:25:15;;;;;;;56.92;22.45;;;;;;;15.48;100.00;92665.38;5057897;28;20044;-79
2023/09/20 04:27:43;;;;;;;60.92;22.27;;;;;;;15.46;100.00;92669.41;5055570;28;20103;-80
2023/09/20 04:30:09;;;;;;;65.28;24.40;;;;;;;15.44;100.00;92666.31;5056204;28;20036;-80
2023/09/20 04:32:40;;;;;;;57.78;22.90;;;;;;;15.39;100.00;92660.09;5056509;28;20052;-79
2023/09/20 04:35:08;;;;;;;57.65;23.13;;;;;;;15.39;100.00;92657.47;5056617;28;20504;-80
2023/09/20 04:37:34;;;;;;;54.83;22.80;;;;;;;15.35;100.00;92647.84;5056563;28;20083;-80
2023/09/20 04:40:00;;;;;;;62.67;23.83;;;;;;;15.34;100.00;92648.94;5054774;28;20400;-79
2023/09/20 04:42:33;;;;;;;57.47;24.15;;;;;;;15.32;100.00;92646.63;5055798;28;20044;-79
2023/09/20 04:44:59;;;;;;;55.58;23.40;;;;;;;15.33;100.00;92636.84;5062008;28;20047;-80
2023/09/20 04:47:25;;;;;;;62.50;23.90;;;;;;;15.32;100.00;92641.34;5057487;28;20054;-80
2023/09/20 04:49:51;;;;;;;62.92;23.42;;;;;;;15.31;100.00;92650.34;5060839;28;20035;-80
2023/09/20 04:52:16;;;;;;;58.33;25.17;;;;;;;15.29;100.00;92649.09;5078178;28;20036;-80
2023/09/20 04:54:44;;;;;;;67.65;24.83;;;;;;;15.29;100.00;92651.72;5063686;28;20104;-83
2023/09/20 04:57:12;;;;;;;62.92;23.90;;;;;;;15.32;100.00;92645.84;5059025;28;20040;-82
2023/09/20 04:59:39;;;;;;;62.72;24.98;;;;;;;15.30;100.00;92648.78;5045528;28;20381;-82
2023/09/20 05:02:06;;;;;;;66.53;24.60;;;;;;;15.31;100.00;92639.00;5069508;28;20044;-80
2023/09/20 05:04:34;;;;;;;59.28;24.20;;;;;;;15.32;100.00;92646.63;5071951;28;20033;-81
2023/09/20 05:07:06;;;;;;;54.92;23.25;;;;;;;15.32;100.00;92645.84;5053499;28;20041;-80
2023/09/20 05:09:35;;;;;;;61.70;23.42;;;;;;;15.33;100.00;92642.91;5078930;28;20086;-80
2023/09/20 05:12:02;;;;;;;55.47;22.20;;;;;;;15.34;100.00;92647.09;5052959;28;20522;-81
2023/09/20 05:14:29;;;;;;;56.33;23.00;;;;;;;15.36;100.00;92644.91;5060246;28;20067;-81
2023/09/20 05:16:55;;;;;;;54.47;22.20;;;;;;;15.39;100.00;92640.88;5060354;28;20032;-82
2023/09/20 05:19:24;;;;;;;59.63;23.67;;;;;;;15.41;100.00;92647.38;5058032;28;20063;-82
2023/09/20 05:21:50;;;;;;;60.88;24.75;;;;;;;15.49;100.00;92648.47;5064575;28;20062;-82
2023/09/20 05:24:15;;;;;;;58.75;21.90;;;;;;;15.54;100.00;92648.31;5059277;28;20128;-82
2023/09/20 05:26:41;;;;;;;46.92;19.92;;;;;;;15.62;100.00;92649.38;5060406;28;20040;-83
2023/09/20 05:29:06;;;;;;;49.38;19.98;;;;;;;15.69;100.00;92649.66;5074014;28;20173;-83
2023/09/20 05:31:33;;;;;;;50.70;19.50;;;;;;;15.75;100.00;92655.59;5055558;28;20032;-83
2023/09/20 05:33:59;;;;;;;54.20;19.52;;;;;;;15.82;100.00;92647.97;5055893;28;20045;-82
2023/09/20 05:36:27;;;;;;;56.47;21.05;;;;;;;15.92;100.00;92647.66;5056234;28;20036;-83
2023/09/20 05:38:53;;;;;;;51.78;19.33;;;;;;;16.11;100.00;92649.16;5059289;28;20036;-83
2023/09/20 05:41:19;;;;;;;50.65;19.20;;;;;;;16.40;100.00;92654.47;5058515;28;20036;-83
2023/09/20 05:43:45;;;;;;;38.20;17.10;;;;;;;16.55;100.00;92662.94;5074343;28;20040;-82
2023/09/20 05:46:13;;;;;;;30.50;12.25;;;;;;;16.43;100.00;92658.34;5075145;28;20016;-83
2023/09/20 05:48:39;;;;;;;29.77;11.35;;;;;;;16.37;100.00;92656.97;5075837;28;20446;-83
2023/09/20 05:51:05;;;;;;;27.40;11.85;;;;;;;16.38;100.00;92653.25;5075042;28;20028;-83
2023/09/20 05:53:32;;;;;;;29.73;11.20;;;;;;;16.54;100.00;92656.88;5075387;28;20047;-82
2023/09/20 05:56:05;;;;;;;30.38;12.25;;;;;;;16.87;100.00;92647.59;5065557;28;20057;-83
2023/09/20 05:58:31;;;;;;;22.55;11.65;;;;;;;17.20;100.00;92645.81;5036288;28;20037;-83
2023/09/20 06:00:59;;;;;;;25.40;11.60;;;;;;;17.68;100.00;92655.03;5035648;28;20025;-82
2023/09/20 06:03:24;;;;;;;27.95;11.57;;;;;;;18.06;100.00;92648.78;5036159;28;20052;-83
2023/09/20 06:05:50;;;;;;;25.60;11.25;;;;;;;18.08;100.00;92651.88;5036237;28;20404;-82
2023/09/20 06:08:15;;;;;;;25.02;9.95;;;;;;;18.07;100.00;92658.25;5036272;28;20060;-82
2023/09/20 06:10:41;;;;;;;18.05;7.65;;;;;;;17.73;100.00;92659.34;5036294;28;20025;-83
2023/09/20 06:13:08;;;;;;;20.30;7.82;;;;;;;17.72;100.00;92657.81;5034943;28;20038;-83
2023/09/20 06:15:36;;;;;;;22.88;7.38;;;;;;;17.64;100.00;92653.38;5035978;28;20083;-82
2023/09/20 06:18:02;;;;;;;19.20;7.47;;;;;;;17.64;100.00;92648.84;5036635;28;20033;-83
2023/09/20 06:20:28;;;;;;;19.30;7.57;;;;;;;17.71;100.00;92652.84;5034815;28;20060;-83
2023/09/20 06:22:54;;;;;;;15.82;7.55;;;;;;;17.54;100.00;92656.41;5036663;28;20095;-83
2023/09/20 06:25:21;;;;;;;17.15;7.80;;;;;;;17.48;100.00;92653.19;5037098;28;20083;-83
2023/09/20 06:27:53;;;;;;;18.23;7.93;;;;;;;17.59;100.00;92653.59;5036818;28;20041;-83
2023/09/20 06:30:20;;;;;;;25.17;9.77;;;;;;;17.87;100.00;92661.75;5035878;28;20140;-83
2023/09/20 06:32:46;;;;;;;27.98;9.85;;;;;;;17.97;100.00;92660.56;5036021;28;20132;-83
2023/09/20 06:35:14;;;;;;;20.10;8.48;;;;;;;18.27;100.00;92658.53;5036322;28;20084;-83
2023/09/20 06:37:45;;;;;;;24.27;8.93;;;;;;;18.53;100.00;92660.88;5035649;28;20037;-82
2023/09/20 06:40:21;;;;;;;22.98;9.85;;;;;;;19.05;100.00;92664.72;5044668;28;20032;-81
2023/09/20 06:42:46;;;;;;;22.02;9.80;;;;;;;19.14;100.00;92663.50;5059923;28;20064;-80
2023/09/20 06:45:12;;;;;;;33.20;11.30;;;;;;;19.10;100.00;92661.88;5059967;28;20465;-80
2023/09/20 06:47:39;;;;;;;23.55;10.25;;;;;;;19.14;100.00;92671.47;5041312;28;20041;-83
2023/09/20 06:50:06;;;;;;;24.75;9.68;;;;;;;19.45;100.00;92666.63;5039677;28;20043;-82
2023/09/20 06:52:31;;;;;;;30.17;10.65;;;;;;;19.74;100.00;92669.00;5039688;28;20034;-82
2023/09/20 06:54:57;;;;;;;22.60;9.20;;;;;;;20.30;100.00;92662.09;5038882;28;20040;-82
2023/09/20 06:57:22;;;;;;;24.55;9.63;;;;;;;20.65;100.00;92667.53;5038467;28;20083;-82
2023/09/20 06:59:52;;;;;;;27.08;10.35;;;;;;;21.04;100.00;92672.19;5039632;28;20159;-81
2023/09/20 07:02:19;;;;;;;22.80;10.23;;;;;;;20.83;100.00;92677.78;5037902;28;20045;-81
2023/09/20 07:04:47;;;;;;;21.88;10.45;;;;;;;20.32;100.00;92675.81;5050427;28;20033;-81
2023/09/20 07:07:13;;;;;;;18.73;8.98;;;;;;;20.21;100.00;92685.41;5058624;28;20040;-81
2023/09/20 07:09:39;;;;;;;20.35;9.73;;;;;;;19.52;100.00;92688.88;5059586;28;20394;-81
2023/09/20 07:12:07;;;;;;;24.65;8.90;;;;;;;18.89;100.00;92689.31;5059164;28;20055;-82
2023/09/20 07:14:34;;;;;;;19.35;9.82;;;;;;;18.49;100.00;92679.31;5059459;28;20069;-83
2023/09/20 07:17:03;;;;;;;22.10;9.27;;;;;;;18.36;100.00;92682.28;5039020;28;20393;-82
2023/09/20 07:19:35;;;;;;;32.85;11.30;;;;;;;18.22;100.00;92672.00;5037998;28;20041;-81
2023/09/20 07:22:01;;;;;;;21.60;10.35;;;;;;;17.94;100.00;92674.47;5038836;28;20037;-82
2023/09/20 07:24:27;;;;;;;26.58;10.27;;;;;;;17.79;100.00;92681.91;5038703;28;20068;-80
2023/09/20 07:26:54;;;;;;;21.90;10.38;;;;;;;17.71;100.00;92682.72;5038173;28;20034;-83
2023/09/20 07:29:21;;;;;;;24.15;9.50;;;;;;;17.73;100.00;92685.84;5039324;28;20061;-81
2023/09/20 07:31:48;;;;;;;20.00;10.38;;;;;;;17.85;100.00;92695.72;5040274;28;20041;-83
2023/09/20 07:34:15;;;;;;;26.80;10.77;;;;;;;17.69;100.00;92693.63;5037863;28;20033;-81
2023/09/20 07:36:43;;;;;;;24.77;9.70;;;;;;;17.49;100.00;92697.09;5021199;28;20444;-81
2023/09/20 07:39:17;;;;;;;99.97;10.00;;;;;;;17.27;100.00;92698.97;5038616;28;20504;-81
2023/09/20 07:41:50;;;;;;;106.55;10.93;;;;;;;17.06;100.00;92700.81;5037088;28;20045;-81
2023/09/20 07:44:17;;;;;;;21.45;9.10;;;;;;;16.82;100.00;92694.25;5038896;28;20548;-81
2023/09/20 07:46:43;;;;;;;22.70;10.52;;;;;;;16.72;100.00;92699.09;5038524;28;20108;-81
2023/09/20 07:49:09;;;;;;;22.17;10.40;;;;;;;16.72;100.00;92697.22;5039721;28;20068;-81
2023/09/20 07:51:36;;;;;;;25.40;11.02;;;;;;;16.76;100.00;92695.50;5038670;28;20485;-81
2023/09/20 07:54:03;;;;;;;22.23;10.02;;;;;;;17.01;100.00;92701.75;5036987;28;20039;-81
2023/09/20 07:56:29;;;;;;;25.85;10.43;;;;;;;17.20;100.00;92698.72;5037939;28;20527;-80
2023/09/20 07:58:55;;;;;;;19.35;9.98;;;;;;;17.15;100.00;92696.22;5037889;28;20101;-81
2023/09/20 08:01:21;;;;;;;25.55;8.70;;;;;;;17.17;100.00;92704.63;5037657;28;20032;-81
2023/09/20 08:03:51;;;;;;;23.67;9.63;;;;;;;17.23;100.00;92706.00;5038913;28;20431;-80
2023/09/20 08:06:20;;;;;;;22.48;9.80;;;;;;;17.26;100.00;92697.41;5038018;28;20065;-81
2023/09/20 08:08:47;;;;;;;27.60;9.73;;;;;;;17.24;100.00;92704.88;5036704;28;20033;-81
2023/09/20 08:11:13;;;;;;;16.55;8.95;;;;;;;17.08;100.00;92709.19;5036795;28;20107;-81
2023/09/20 08:13:38;;;;;;;21.10;8.20;;;;;;;17.13;100.00;92713.53;5037171;28;20021;-81
2023/09/20 08:16:09;;;;;;;21.77;8.27;;;;;;;17.17;100.00;92709.16;5036722;28;20091;-80
2023/09/20 08:21:20;;;;;;;19.88;9.55;;;;;;;17.03;100.00;92704.88;5037067;28;20045;-82
2023/09/20 08:59:50;;;;;;;26.42;10.98;;;;;;;16.70;100.00;92720.56;5026993;28;20924;-78
2023/09/20 09:02:16;;;;;;;26.65;11.23;;;;;;;16.83;100.00;92721.47;5034919;28;20052;-78
2023/09/20 09:04:47;;;;;;;31.20;13.65;;;;;;;16.76;100.00;92721.94;5035066;28;20288;-78
2023/09/20 09:07:13;;;;;;;33.58;13.60;;;;;;;16.91;100.00;92723.31;5030846;28;20041;-78
2023/09/20 09:09:40;;;;;;;38.00;12.85;;;;;;;16.89;100.00;92727.34;5032039;28;20037;-78
2023/09/20 09:12:07;;;;;;;40.35;13.65;;;;;;;16.94;100.00;92721.88;5033189;28;20057;-78
2023/09/20 09:14:35;;;;;;;38.42;12.70;;;;;;;17.13;100.00;92719.56;5041169;28;20033;-78
2023/09/20 09:17:02;;;;;;;30.52;13.32;;;;;;;17.14;100.00;92715.84;5035307;28;20487;-78
2023/09/20 09:19:28;;;;;;;29.17;11.23;;;;;;;17.39;100.00;92718.66;5031061;28;20037;-78
2023/09/20 09:21:56;;;;;;;29.27;11.40;;;;;;;17.37;100.00;92723.50;5034145;28;20450;-77
2023/09/20 09:24:22;;;;;;;28.65;10.88;;;;;;;17.25;100.00;92727.59;5024888;28;20032;-77
2023/09/20 09:26:48;;;;;;;24.08;9.95;;;;;;;17.07;100.00;92731.47;5019316;28;20049;-77
2023/09/20 09:29:17;;;;;;;29.77;12.35;;;;;;;17.13;100.00;92724.09;5031249;28;20091;-77
2023/09/20 09:31:49;;;;;;;42.65;13.77;;;;;;;17.06;100.00;92729.91;5026767;28;20393;-78
2023/09/20 09:34:19;;;;;;;34.85;12.60;;;;;;;16.92;100.00;92734.66;5037132;28;20041;-77
2023/09/20 09:36:45;;;;;;;26.02;11.50;;;;;;;16.91;100.00;92730.44;5014326;28;20040;-80
2023/09/20 09:39:14;;;;;;;25.80;11.57;;;;;;;16.95;100.00;92729.47;5031248;28;20022;-80
2023/09/20 09:41:44;;;;;;;30.35;11.73;;;;;;;16.85;100.00;92727.97;5015788;28;20038;-80
2023/09/20 09:44:10;;;;;;;39.55;13.82;;;;;;;16.83;100.00;92730.16;5016074;28;20093;-80
2023/09/20 09:46:41;;;;;;;39.55;14.18;;;;;;;16.81;100.00;92727.06;5031319;28;20040;-80
2023/09/20 09:49:11;;;;;;;37.95;11.70;;;;;;;16.88;100.00;92728.44;5016416;28;20084;-81
2023/09/20 09:51:46;;;;;;;30.98;13.50;;;;;;;17.05;100.00;92718.53;5016434;28;20041;-79
2023/09/20 09:54:12;;;;;;;36.70;15.00;;;;;;;17.23;100.00;92710.50;5016198;28;20656;-80
2023/09/20 09:56:38;;;;;;;38.60;14.02;;;;;;;17.40;100.00;92717.53;5015276;28;20054;-80
2023/09/20 09:59:07;;;;;;;32.65;15.00;;;;;;;17.41;100.00;92713.81;5015550;28;20042;-79
2023/09/20 10:01:36;;;;;;;32.65;14.48;;;;;;;17.33;100.00;92717.28;5016352;28;20045;-80
2023/09/20 10:04:07;;;;;;;38.08;13.32;;;;;;;17.41;100.00;92717.22;5016281;28;20041;-80
2023/09/20 10:07:16;;;;;;;38.95;16.63;;;;;;;17.58;100.00;92708.38;5029521;28;20042;-79
2023/09/20 10:09:48;;;;;;;43.92;16.92;;;;;;;17.92;100.00;92701.25;5034924;28;20037;-81
2023/09/20 10:12:15;;;;;;;31.70;13.55;;;;;;;18.18;100.00;92705.53;5052186;28;20037;-80
2023/09/20 10:14:43;;;;;;;40.55;17.60;;;;;;;18.11;100.00;92695.47;5054456;28;20025;-81
2023/09/20 10:17:15;;;;;;;46.45;18.23;;;;;;;17.92;100.00;92701.25;5049148;28;20099;-81
2023/09/20 10:19:41;;;;;;;40.80;17.48;;;;;;;17.86;100.00;92694.63;5033086;28;20065;-79
2023/09/20 10:22:09;;;;;;;34.65;15.02;;;;;;;17.96;100.00;92696.84;5034405;28;20033;-79
2023/09/20 10:25:05;;;;;;;29.83;13.82;;;;;;;17.78;100.00;92690.16;5042762;28;20035;-79
2023/09/20 10:27:32;;;;;;;36.70;14.50;;;;;;;17.53;100.00;92692.69;5035556;28;20057;-79
2023/09/20 10:30:09;;;;;;;30.63;14.65;;;;;;;17.55;100.00;92689.72;5034015;28;20053;-80
2023/09/20 10:32:38;;;;;;;40.20;14.90;;;;;;;17.49;100.00;92686.50;5032206;28;20408;-79
2023/09/20 10:35:27;;;;;;;37.45;14.07;;;;;;;17.42;100.00;92688.88;5029518;28;20057;-79
2023/09/20 10:38:23;;;;;;;28.55;13.68;;;;;;;17.44;100.00;92684.81;5051356;28;20496;-79
2023/09/20 10:40:51;;;;;;;34.08;13.40;;;;;;;17.36;100.00;92684.88;5031095;28;20184;-80
2023/09/20 10:43:25;;;;;;;46.55;14.13;;;;;;;17.24;100.00;92693.53;5016680;28;20433;-79
2023/09/20 10:45:53;;;;;;;41.70;15.30;;;;;;;17.08;100.00;92695.19;5039677;28;20037;-81
2023/09/20 10:48:26;;;;;;;43.83;16.08;;;;;;;17.02;100.00;92692.75;5035417;28;20477;-79
2023/09/20 10:50:59;;;;;;;37.55;14.70;;;;;;;16.96;100.00;92696.66;5034640;28;20029;-79
2023/09/20 10:53:52;;;;;;;48.33;20.35;;;;;;;16.99;100.00;92692.59;5034018;28;20041;-78
2023/09/20 10:56:45;;;;;;;52.30;18.92;;;;;;;17.30;100.00;92692.25;5033915;28;20087;-79
2023/09/20 10:59:16;;;;;;;35.45;16.35;;;;;;;17.55;100.00;92697.69;5033261;28;20061;-79
2023/09/20 11:01:53;;;;;;;54.63;19.23;;;;;;;17.78;100.00;92696.22;5033384;28;20033;-80
2023/09/20 11:04:19;;;;;;;44.17;17.10;;;;;;;17.85;100.00;92690.44;5033408;28;20037;-80
2023/09/20 11:06:49;;;;;;;40.70;18.60;;;;;;;17.99;100.00;92684.84;5034228;28;20113;-78
2023/09/20 11:09:15;;;;;;;35.58;16.45;;;;;;;18.04;100.00;92682.78;5033758;28;20036;-79
2023/09/20 11:11:42;;;;;;;45.85;16.95;;;;;;;17.91;100.00;92678.53;5033743;28;20030;-80
2023/09/20 11:14:08;;;;;;;37.55;15.32;;;;;;;18.01;100.00;92687.94;5033438;28;20042;-80
2023/09/20 11:16:34;;;;;;;47.58;15.80;;;;;;;17.98;100.00;92684.06;5033133;28;20445;-79
2023/09/20 11:19:00;;;;;;;44.53;16.85;;;;;;;17.84;100.00;92683.59;5032630;28;20064;-80
2023/09/20 11:21:26;;;;;;;37.60;16.40;;;;;;;17.86;100.00;92682.16;5034259;28;20037;-80
2023/09/20 11:23:52;;;;;;;44.30;16.77;;;;;;;17.76;100.00;92671.16;5033919;28;20042;-80
2023/09/20 11:26:27;;;;;;;36.83;17.30;;;;;;;17.80;100.00;92669.41;5036795;28;20033;-79
2023/09/20 11:28:53;;;;;;;29.15;14.45;;;;;;;18.16;100.00;92678.59;5037417;28;20136;-79
2023/09/20 11:31:27;;;;;;;39.38;16.23;;;;;;;18.20;100.00;92668.91;5037820;28;20089;-80
2023/09/20 11:34:00;;;;;;;46.35;16.38;;;;;;;18.45;100.00;92665.16;5037927;28;20044;-79
2023/09/20 11:36:29;;;;;;;31.42;17.05;;;;;;;18.53;100.00;92660.88;5037090;28;20055;-79
2023/09/20 11:38:55;;;;;;;39.00;16.20;;;;;;;18.67;100.00;92663.19;5036940;28;20036;-80
2023/09/20 11:41:24;;;;;;;40.17;17.05;;;;;;;18.69;100.00;92671.59;5037393;28;20033;-79
2023/09/20 11:43:56;;;;;;;41.47;18.63;;;;;;;18.60;100.00;92663.75;5037684;28;20496;-79
2023/09/20 11:46:22;;;;;;;;;;;;;;;18.51;100.00;92663.84;5037505;28;20167;-79
2023/09/20 11:48:49;;;;;;;44.08;17.75;;;;;;;18.50;100.00;92662.28;5036529;28;19909;-80
2023/09/20 11:51:16;;;;;;;36.10;15.32;;;;;;;18.41;100.00;92666.16;5037384;28;20138;-79
2023/09/20 11:53:44;;;;;;;42.60;17.83;;;;;;;18.33;100.00;92667.81;5037201;28;20025;-80
2023/09/20 11:56:10;;;;;;;39.45;16.13;;;;;;;18.28;100.00;92666.16;5036903;28;20520;-80